createdAt,value
2019-03-28T00:00:54.488Z,0.00
2019-03-28T00:01:54.474Z,0.00
2019-03-28T00:02:54.463Z,0.00
2019-03-28T00:03:54.452Z,0.00
2019-03-28T00:04:54.470Z,0.00
2019-03-28T00:05:54.426Z,0.00
2019-03-28T00:06:54.432Z,0.00
2019-03-28T00:07:54.404Z,0.00
2019-03-28T00:08:54.392Z,0.00
2019-03-28T00:09:54.398Z,0.00
2019-03-28T00:10:54.385Z,0.00
2019-03-28T00:11:54.357Z,0.00
2019-03-28T00:12:54.347Z,0.00
2019-03-28T00:13:54.745Z,0.00
2019-03-28T00:14:54.353Z,0.00
2019-03-28T00:15:54.309Z,0.00
2019-03-28T00:16:54.297Z,0.00
2019-03-28T00:17:54.286Z,0.00
2019-03-28T00:18:57.344Z,0.00
2019-03-28T00:19:54.292Z,0.00
2019-03-28T00:20:54.249Z,0.00
2019-03-28T00:21:54.238Z,0.00
2019-03-28T00:22:54.225Z,0.00
2019-03-28T00:23:54.214Z,0.00
2019-03-28T00:24:54.203Z,0.00
2019-03-28T00:25:54.209Z,0.00
2019-03-28T00:26:54.178Z,0.00
2019-03-28T00:27:54.168Z,0.00
2019-03-28T00:28:54.155Z,0.00
2019-03-28T00:29:54.326Z,0.00
2019-03-28T00:30:54.164Z,0.00
2019-03-28T00:31:54.119Z,0.00
2019-03-28T00:32:54.110Z,0.00
2019-03-28T00:33:54.095Z,0.00
2019-03-28T00:34:54.083Z,0.00
2019-03-28T00:35:54.097Z,0.00
2019-03-28T00:36:54.060Z,0.00
2019-03-28T00:37:54.078Z,0.00
2019-03-28T00:38:54.043Z,0.00
2019-03-28T00:39:54.025Z,0.00
2019-03-28T00:40:54.032Z,0.00
2019-03-28T00:41:54.002Z,0.00
2019-03-28T00:42:53.992Z,0.00
2019-03-28T00:43:53.981Z,0.00
2019-03-28T00:44:53.966Z,0.00
2019-03-28T00:45:53.973Z,0.00
2019-03-28T00:46:53.967Z,0.00
2019-03-28T00:47:53.932Z,0.00
2019-03-28T00:48:53.918Z,0.00
2019-03-28T00:49:53.912Z,0.00
2019-03-28T00:50:53.929Z,0.00
2019-03-28T00:51:53.887Z,0.00
2019-03-28T00:52:53.873Z,0.00
2019-03-28T00:53:53.886Z,0.00
2019-03-28T00:54:53.849Z,0.00
2019-03-28T00:55:53.856Z,0.00
2019-03-28T00:56:53.825Z,0.00
2019-03-28T00:57:53.812Z,0.00
2019-03-28T00:58:53.819Z,0.00
2019-03-28T00:59:53.791Z,0.00
2019-03-28T01:00:53.815Z,0.00
2019-03-28T01:01:53.766Z,0.00
2019-03-28T01:02:53.752Z,0.00
2019-03-28T01:03:53.743Z,0.00
2019-03-28T01:04:53.728Z,0.00
2019-03-28T01:05:53.717Z,0.00
2019-03-28T01:06:53.725Z,0.00
2019-03-28T01:07:53.693Z,0.00
2019-03-28T01:08:53.681Z,0.00
2019-03-28T01:09:53.668Z,0.00
2019-03-28T01:10:53.658Z,0.00
2019-03-28T01:11:53.664Z,0.00
2019-03-28T01:12:53.659Z,0.00
2019-03-28T01:13:53.623Z,0.00
2019-03-28T01:14:53.608Z,0.00
2019-03-28T01:15:53.598Z,0.00
2019-03-28T01:16:53.611Z,0.00
2019-03-28T01:17:53.574Z,0.00
2019-03-28T01:18:53.563Z,0.00
2019-03-28T01:19:53.552Z,0.00
2019-03-28T01:20:53.538Z,0.00
2019-03-28T01:21:53.545Z,0.00
2019-03-28T01:22:53.514Z,0.00
2019-03-28T01:23:53.503Z,0.00
2019-03-28T01:24:53.491Z,0.00
2019-03-28T01:25:53.480Z,0.00
2019-03-28T01:26:57.389Z,0.00
2019-03-28T01:27:53.457Z,0.00
2019-03-28T01:28:53.445Z,0.00
2019-03-28T01:29:53.431Z,0.00
2019-03-28T01:30:53.420Z,0.00
2019-03-28T01:31:53.426Z,0.00
2019-03-28T01:32:53.493Z,0.00
2019-03-28T01:33:53.384Z,0.00
2019-03-28T01:34:53.374Z,0.00
2019-03-28T01:35:53.364Z,0.00
2019-03-28T01:36:53.369Z,0.00
2019-03-28T01:37:53.337Z,0.00
2019-03-28T01:38:53.327Z,0.00
2019-03-28T01:39:53.313Z,0.00
2019-03-28T01:40:53.302Z,0.00
2019-03-28T01:41:53.350Z,0.00
2019-03-28T01:42:53.278Z,0.00
2019-03-28T01:43:53.266Z,0.00
2019-03-28T01:44:53.255Z,0.00
2019-03-28T01:45:53.246Z,0.00
2019-03-28T01:46:53.261Z,0.00
2019-03-28T01:47:53.220Z,0.00
2019-03-28T01:48:53.210Z,0.00
2019-03-28T01:49:53.195Z,0.00
2019-03-28T01:50:53.187Z,0.00
2019-03-28T01:51:53.172Z,0.00
2019-03-28T01:52:53.178Z,0.00
2019-03-28T01:53:53.154Z,0.00
2019-03-28T01:54:53.139Z,0.00
2019-03-28T01:55:53.126Z,0.00
2019-03-28T01:56:53.112Z,0.00
2019-03-28T01:57:53.118Z,0.00
2019-03-28T01:58:53.088Z,0.00
2019-03-28T01:59:53.076Z,0.00
2019-03-28T02:00:53.063Z,0.00
2019-03-28T02:01:53.052Z,0.00
2019-03-28T02:02:53.059Z,0.00
2019-03-28T02:03:53.031Z,0.00
2019-03-28T02:04:53.026Z,0.00
2019-03-28T02:05:53.005Z,0.00
2019-03-28T02:06:52.993Z,0.00
2019-03-28T02:07:53.001Z,0.00
2019-03-28T02:08:52.972Z,0.00
2019-03-28T02:09:52.960Z,0.00
2019-03-28T02:10:52.948Z,0.00
2019-03-28T02:11:52.983Z,0.00
2019-03-28T02:12:52.944Z,0.00
2019-03-28T02:13:52.912Z,0.00
2019-03-28T02:14:52.899Z,0.00
2019-03-28T02:15:52.888Z,0.00
2019-03-28T02:16:52.879Z,0.00
2019-03-28T02:17:52.887Z,0.00
2019-03-28T02:18:52.869Z,0.00
2019-03-28T02:19:52.839Z,0.00
2019-03-28T02:20:52.827Z,0.00
2019-03-28T02:21:53.269Z,0.00
2019-03-28T02:22:52.830Z,0.00
2019-03-28T02:23:52.842Z,0.00
2019-03-28T02:24:52.804Z,0.00
2019-03-28T02:25:52.769Z,0.00
2019-03-28T02:26:52.756Z,0.00
2019-03-28T02:27:52.743Z,0.00
2019-03-28T02:28:52.808Z,0.00
2019-03-28T02:29:52.721Z,0.00
2019-03-28T02:30:52.710Z,0.00
2019-03-28T02:31:52.698Z,0.00
2019-03-28T02:32:52.684Z,0.00
2019-03-28T02:33:52.672Z,0.00
2019-03-28T02:34:52.680Z,0.00
2019-03-28T02:35:52.649Z,0.00
2019-03-28T02:36:52.638Z,0.00
2019-03-28T02:37:52.657Z,0.00
2019-03-28T02:38:52.613Z,0.00
2019-03-28T02:39:52.625Z,0.00
2019-03-28T02:40:52.589Z,0.00
2019-03-28T02:41:52.579Z,0.00
2019-03-28T02:42:53.404Z,0.00
2019-03-28T02:43:52.554Z,0.00
2019-03-28T02:44:52.630Z,0.00
2019-03-28T02:45:52.536Z,0.00
2019-03-28T02:46:52.525Z,0.00
2019-03-28T02:47:52.512Z,0.00
2019-03-28T02:48:59.521Z,0.00
2019-03-28T02:49:52.504Z,0.00
2019-03-28T02:50:52.476Z,0.00
2019-03-28T02:51:52.459Z,0.00
2019-03-28T02:52:52.447Z,0.00
2019-03-28T02:53:52.437Z,0.00
2019-03-28T02:54:52.444Z,0.00
2019-03-28T02:55:52.412Z,0.00
2019-03-28T02:56:52.406Z,0.00
2019-03-28T02:57:52.385Z,0.00
2019-03-28T02:58:52.374Z,0.00
2019-03-28T02:59:52.395Z,0.00
2019-03-28T03:00:52.350Z,0.00
2019-03-28T03:01:52.340Z,0.00
2019-03-28T03:02:52.327Z,0.00
2019-03-28T03:03:52.315Z,0.00
2019-03-28T03:04:52.302Z,0.00
2019-03-28T03:05:52.320Z,0.00
2019-03-28T03:06:52.283Z,0.00
2019-03-28T03:07:52.276Z,0.00
2019-03-28T03:08:52.261Z,0.00
2019-03-28T03:09:52.251Z,0.00
2019-03-28T03:10:52.259Z,0.00
2019-03-28T03:11:52.243Z,0.00
2019-03-28T03:12:52.211Z,0.00
2019-03-28T03:13:52.204Z,0.00
2019-03-28T03:14:52.197Z,0.00
2019-03-28T03:15:52.193Z,0.00
2019-03-28T03:16:52.164Z,0.00
2019-03-28T03:17:52.153Z,0.00
2019-03-28T03:18:52.139Z,0.00
2019-03-28T03:19:52.132Z,0.00
2019-03-28T03:20:52.145Z,0.00
2019-03-28T03:21:52.106Z,0.00
2019-03-28T03:22:52.090Z,0.00
2019-03-28T03:23:52.081Z,0.00
2019-03-28T03:24:52.068Z,0.00
2019-03-28T03:25:52.078Z,0.00
2019-03-28T03:26:52.047Z,0.00
2019-03-28T03:27:58.557Z,0.00
2019-03-28T03:28:53.024Z,0.00
2019-03-28T03:29:52.010Z,0.00
2019-03-28T03:30:52.014Z,0.00
2019-03-28T03:31:53.635Z,0.00
2019-03-28T03:32:51.988Z,0.00
2019-03-28T03:33:51.962Z,0.00
2019-03-28T03:34:51.950Z,0.00
2019-03-28T03:35:51.957Z,0.00
2019-03-28T03:36:51.927Z,0.00
2019-03-28T03:37:51.911Z,0.00
2019-03-28T03:38:51.902Z,0.00
2019-03-28T03:39:51.890Z,0.00
2019-03-28T03:40:51.898Z,0.00
2019-03-28T03:41:51.867Z,0.00
2019-03-28T03:42:51.855Z,0.00
2019-03-28T03:43:51.846Z,0.00
2019-03-28T03:44:51.831Z,0.00
2019-03-28T03:45:51.848Z,0.00
2019-03-28T03:46:51.811Z,0.00
2019-03-28T03:47:51.806Z,0.00
2019-03-28T03:48:51.794Z,0.00
2019-03-28T03:49:51.772Z,0.00
2019-03-28T03:50:51.779Z,0.00
2019-03-28T03:51:51.780Z,0.00
2019-03-28T03:52:51.735Z,0.00
2019-03-28T03:53:51.724Z,0.00
2019-03-28T03:54:51.718Z,0.00
2019-03-28T03:55:51.721Z,0.00
2019-03-28T03:56:51.689Z,0.00
2019-03-28T03:57:51.676Z,0.00
2019-03-28T03:58:51.668Z,0.00
2019-03-28T03:59:51.654Z,0.00
2019-03-28T04:00:51.662Z,0.00
2019-03-28T04:01:51.629Z,0.00
2019-03-28T04:02:51.617Z,0.00
2019-03-28T04:03:51.606Z,0.00
2019-03-28T04:04:51.593Z,0.00
2019-03-28T04:05:51.601Z,0.00
2019-03-28T04:06:51.570Z,0.00
2019-03-28T04:07:51.558Z,0.00
2019-03-28T04:08:51.547Z,0.00
2019-03-28T04:09:51.535Z,0.00
2019-03-28T04:10:51.541Z,0.00
2019-03-28T04:11:51.510Z,0.00
2019-03-28T04:12:51.504Z,0.00
2019-03-28T04:13:51.486Z,0.00
2019-03-28T04:14:51.476Z,0.00
2019-03-28T04:15:51.486Z,0.00
2019-03-28T04:16:51.453Z,0.00
2019-03-28T04:17:51.440Z,0.00
2019-03-28T04:18:51.444Z,0.00
2019-03-28T04:19:51.420Z,0.00
2019-03-28T04:20:51.769Z,0.00
2019-03-28T04:21:51.399Z,0.00
2019-03-28T04:22:51.382Z,0.00
2019-03-28T04:23:51.370Z,0.00
2019-03-28T04:24:51.360Z,0.00
2019-03-28T04:25:51.368Z,0.00
2019-03-28T04:26:51.335Z,0.00
2019-03-28T04:27:51.328Z,0.00
2019-03-28T04:28:51.314Z,0.00
2019-03-28T04:29:51.300Z,0.00
2019-03-28T04:30:51.313Z,0.00
2019-03-28T04:31:51.277Z,0.00
2019-03-28T04:32:51.264Z,0.00
2019-03-28T04:33:51.252Z,0.00
2019-03-28T04:34:51.240Z,0.00
2019-03-28T04:35:51.245Z,0.00
2019-03-28T04:36:51.219Z,0.00
2019-03-28T04:37:51.217Z,0.00
2019-03-28T04:38:51.195Z,0.00
2019-03-28T04:39:51.182Z,0.00
2019-03-28T04:40:51.185Z,0.00
2019-03-28T04:41:51.158Z,0.00
2019-03-28T04:42:51.151Z,0.00
2019-03-28T04:43:54.006Z,0.00
2019-03-28T04:44:51.121Z,0.00
2019-03-28T04:45:51.126Z,0.00
2019-03-28T04:46:51.096Z,0.00
2019-03-28T04:47:51.085Z,0.00
2019-03-28T04:48:51.081Z,0.00
2019-03-28T04:49:51.060Z,0.00
2019-03-28T04:50:51.069Z,0.00
2019-03-28T04:51:51.038Z,0.00
2019-03-28T04:52:52.857Z,0.00
2019-03-28T04:53:51.013Z,0.00
2019-03-28T04:54:50.999Z,0.00
2019-03-28T04:55:51.012Z,0.00
2019-03-28T04:56:50.984Z,0.00
2019-03-28T04:57:51.016Z,0.00
2019-03-28T04:58:50.960Z,0.00
2019-03-28T04:59:50.940Z,0.00
2019-03-28T05:00:50.950Z,0.00
2019-03-28T05:02:01.257Z,0.00
2019-03-28T05:02:52.475Z,0.00
2019-03-28T05:03:50.894Z,0.00
2019-03-28T05:04:50.883Z,0.00
2019-03-28T05:05:50.888Z,0.00
2019-03-28T05:06:50.859Z,0.00
2019-03-28T05:07:50.847Z,0.00
2019-03-28T05:08:50.835Z,0.00
2019-03-28T05:09:50.828Z,0.00
2019-03-28T05:10:50.831Z,0.00
2019-03-28T05:11:50.800Z,0.00
2019-03-28T05:12:51.453Z,0.00
2019-03-28T05:13:50.776Z,0.00
2019-03-28T05:14:50.764Z,0.00
2019-03-28T05:15:50.774Z,0.00
2019-03-28T05:16:50.743Z,5.62
2019-03-28T05:17:50.734Z,5.62
2019-03-28T05:18:50.717Z,5.62
2019-03-28T05:19:50.704Z,5.62
2019-03-28T05:20:50.714Z,5.62
2019-03-28T05:21:50.682Z,5.62
2019-03-28T05:22:50.671Z,5.62
2019-03-28T05:23:50.660Z,5.62
2019-03-28T05:24:50.651Z,5.62
2019-03-28T05:25:50.656Z,11.25
2019-03-28T05:26:50.626Z,11.25
2019-03-28T05:27:50.613Z,11.25
2019-03-28T05:28:57.630Z,11.25
2019-03-28T05:29:52.221Z,11.25
2019-03-28T05:30:50.597Z,11.25
2019-03-28T05:31:50.567Z,16.88
2019-03-28T05:32:51.411Z,16.88
2019-03-28T05:33:50.541Z,16.88
2019-03-28T05:34:50.530Z,16.88
2019-03-28T05:35:50.518Z,22.50
2019-03-28T05:36:52.148Z,22.50
2019-03-28T05:37:50.500Z,22.50
2019-03-28T05:38:50.500Z,22.50
2019-03-28T05:39:50.472Z,22.50
2019-03-28T05:40:50.497Z,22.50
2019-03-28T05:41:50.464Z,22.50
2019-03-28T05:42:50.589Z,22.50
2019-03-28T05:43:50.425Z,28.12
2019-03-28T05:44:50.412Z,28.12
2019-03-28T05:45:50.403Z,28.12
2019-03-28T05:46:50.413Z,28.12
2019-03-28T05:47:50.378Z,28.12
2019-03-28T05:48:50.365Z,28.12
2019-03-28T05:49:50.353Z,33.75
2019-03-28T05:50:50.342Z,33.75
2019-03-28T05:51:50.357Z,33.75
2019-03-28T05:52:50.318Z,33.75
2019-03-28T05:53:50.307Z,33.75
2019-03-28T05:54:50.293Z,33.75
2019-03-28T05:55:50.287Z,33.75
2019-03-28T05:56:50.294Z,33.75
2019-03-28T05:57:50.260Z,33.75
2019-03-28T05:58:50.249Z,33.75
2019-03-28T05:59:50.236Z,33.75
2019-03-28T06:00:51.416Z,39.38
2019-03-28T06:01:50.231Z,39.38
2019-03-28T06:02:50.530Z,39.38
2019-03-28T06:03:50.191Z,45.00
2019-03-28T06:04:50.177Z,45.00
2019-03-28T06:05:50.169Z,45.00
2019-03-28T06:06:50.185Z,50.62
2019-03-28T06:07:50.149Z,56.25
2019-03-28T06:08:50.132Z,56.25
2019-03-28T06:09:50.116Z,61.88
2019-03-28T06:10:50.109Z,61.88
2019-03-28T06:11:52.876Z,67.50
2019-03-28T06:12:50.091Z,67.50
2019-03-28T06:13:50.074Z,67.50
2019-03-28T06:14:50.061Z,73.12
2019-03-28T06:15:50.061Z,73.12
2019-03-28T06:16:50.059Z,73.12
2019-03-28T06:17:50.027Z,73.12
2019-03-28T06:18:50.013Z,73.12
2019-03-28T06:19:50.000Z,78.75
2019-03-28T06:20:49.988Z,78.75
2019-03-28T06:21:49.997Z,78.75
2019-03-28T06:22:49.966Z,78.75
2019-03-28T06:23:49.955Z,78.75
2019-03-28T06:24:49.943Z,78.75
2019-03-28T06:25:49.932Z,78.75
2019-03-28T06:26:50.215Z,78.75
2019-03-28T06:27:49.915Z,84.38
2019-03-28T06:28:49.898Z,90.00
2019-03-28T06:29:49.886Z,90.00
2019-03-28T06:30:49.873Z,90.00
2019-03-28T06:31:55.516Z,95.62
2019-03-28T06:32:50.849Z,95.62
2019-03-28T06:33:49.837Z,101.25
2019-03-28T06:34:49.833Z,101.25
2019-03-28T06:35:49.879Z,106.88
2019-03-28T06:36:49.824Z,106.88
2019-03-28T06:37:51.442Z,106.88
2019-03-28T06:38:50.304Z,106.88
2019-03-28T06:39:49.770Z,112.50
2019-03-28T06:40:49.759Z,112.50
2019-03-28T06:41:49.763Z,112.50
2019-03-28T06:42:49.742Z,118.12
2019-03-28T06:43:49.727Z,118.12
2019-03-28T06:44:49.710Z,129.38
2019-03-28T06:45:49.700Z,135.00
2019-03-28T06:46:49.706Z,140.62
2019-03-28T06:47:49.677Z,146.25
2019-03-28T06:48:49.666Z,151.88
2019-03-28T06:49:49.656Z,157.50
2019-03-28T06:50:49.645Z,163.12
2019-03-28T06:51:49.654Z,163.12
2019-03-28T06:52:49.623Z,168.75
2019-03-28T06:53:49.610Z,180.00
2019-03-28T06:54:49.597Z,185.62
2019-03-28T06:55:49.589Z,191.25
2019-03-28T06:56:49.599Z,196.88
2019-03-28T06:57:49.565Z,196.88
2019-03-28T06:58:49.551Z,196.88
2019-03-28T06:59:49.538Z,196.88
2019-03-28T07:00:49.527Z,196.88
2019-03-28T07:01:49.537Z,196.88
2019-03-28T07:02:49.506Z,202.50
2019-03-28T07:03:49.496Z,202.50
2019-03-28T07:04:49.483Z,202.50
2019-03-28T07:05:49.472Z,208.12
2019-03-28T07:06:49.476Z,213.75
2019-03-28T07:07:49.450Z,219.38
2019-03-28T07:08:49.436Z,225.00
2019-03-28T07:09:49.426Z,230.62
2019-03-28T07:10:49.415Z,230.62
2019-03-28T07:11:49.420Z,230.62
2019-03-28T07:12:49.393Z,230.62
2019-03-28T07:13:49.384Z,230.62
2019-03-28T07:14:49.367Z,236.25
2019-03-28T07:15:49.355Z,241.88
2019-03-28T07:16:49.364Z,247.50
2019-03-28T07:17:49.337Z,247.50
2019-03-28T07:18:49.323Z,241.88
2019-03-28T07:19:49.312Z,241.88
2019-03-28T07:20:49.299Z,236.25
2019-03-28T07:21:49.307Z,230.62
2019-03-28T07:22:49.278Z,230.62
2019-03-28T07:23:49.265Z,230.62
2019-03-28T07:24:49.254Z,230.62
2019-03-28T07:25:49.243Z,230.62
2019-03-28T07:26:49.257Z,230.62
2019-03-28T07:27:49.223Z,236.25
2019-03-28T07:28:49.215Z,236.25
2019-03-28T07:29:51.260Z,241.88
2019-03-28T07:30:49.198Z,247.50
2019-03-28T07:31:49.196Z,253.12
2019-03-28T07:32:49.164Z,264.38
2019-03-28T07:33:49.149Z,275.62
2019-03-28T07:34:49.143Z,286.88
2019-03-28T07:35:49.130Z,292.50
2019-03-28T07:36:49.161Z,298.12
2019-03-28T07:37:49.113Z,303.75
2019-03-28T07:38:49.097Z,303.75
2019-03-28T07:39:49.084Z,303.75
2019-03-28T07:40:49.074Z,303.75
2019-03-28T07:41:49.059Z,303.75
2019-03-28T07:42:49.070Z,309.38
2019-03-28T07:43:49.041Z,320.62
2019-03-28T07:44:49.038Z,320.62
2019-03-28T07:45:49.014Z,326.25
2019-03-28T07:46:49.010Z,326.25
2019-03-28T07:47:48.993Z,326.25
2019-03-28T07:48:48.997Z,331.88
2019-03-28T07:49:48.970Z,337.50
2019-03-28T07:50:48.959Z,343.12
2019-03-28T07:51:48.944Z,354.38
2019-03-28T07:52:48.933Z,360.00
2019-03-28T07:53:48.949Z,365.62
2019-03-28T07:54:49.037Z,365.62
2019-03-28T07:55:48.899Z,371.25
2019-03-28T07:56:49.462Z,382.50
2019-03-28T07:57:48.879Z,393.75
2019-03-28T07:58:48.868Z,410.62
2019-03-28T07:59:48.870Z,433.12
2019-03-28T08:00:48.842Z,455.62
2019-03-28T08:01:48.834Z,478.12
2019-03-28T08:02:48.820Z,500.62
2019-03-28T08:03:48.811Z,517.50
2019-03-28T08:04:48.817Z,517.50
2019-03-28T08:05:48.784Z,511.88
2019-03-28T08:06:50.339Z,511.88
2019-03-28T08:07:48.763Z,500.62
2019-03-28T08:08:48.753Z,483.75
2019-03-28T08:09:48.757Z,472.50
2019-03-28T08:10:48.727Z,450.00
2019-03-28T08:11:48.716Z,433.12
2019-03-28T08:12:48.705Z,427.50
2019-03-28T08:13:48.694Z,416.25
2019-03-28T08:14:48.703Z,405.00
2019-03-28T08:15:48.671Z,388.12
2019-03-28T08:16:48.657Z,382.50
2019-03-28T08:17:48.648Z,371.25
2019-03-28T08:18:48.635Z,360.00
2019-03-28T08:19:48.644Z,343.12
2019-03-28T08:20:48.613Z,331.88
2019-03-28T08:21:48.601Z,326.25
2019-03-28T08:22:48.589Z,326.25
2019-03-28T08:23:48.576Z,331.88
2019-03-28T08:24:48.588Z,337.50
2019-03-28T08:25:48.553Z,343.12
2019-03-28T08:26:48.543Z,348.75
2019-03-28T08:27:48.528Z,354.38
2019-03-28T08:28:48.517Z,360.00
2019-03-28T08:29:48.529Z,360.00
2019-03-28T08:30:48.495Z,354.38
2019-03-28T08:31:48.488Z,354.38
2019-03-28T08:32:48.474Z,354.38
2019-03-28T08:33:48.461Z,354.38
2019-03-28T08:34:48.477Z,354.38
2019-03-28T08:35:48.435Z,360.00
2019-03-28T08:36:48.425Z,360.00
2019-03-28T08:37:48.449Z,360.00
2019-03-28T08:38:48.401Z,354.38
2019-03-28T08:39:48.408Z,343.12
2019-03-28T08:40:48.380Z,331.88
2019-03-28T08:41:48.808Z,315.00
2019-03-28T08:42:48.355Z,309.38
2019-03-28T08:43:48.348Z,303.75
2019-03-28T08:44:48.352Z,303.75
2019-03-28T08:45:48.320Z,309.38
2019-03-28T08:46:48.310Z,315.00
2019-03-28T08:47:48.298Z,320.62
2019-03-28T08:48:48.284Z,326.25
2019-03-28T08:49:58.569Z,331.88
2019-03-28T08:50:48.266Z,337.50
2019-03-28T08:51:48.251Z,343.12
2019-03-28T08:52:48.239Z,360.00
2019-03-28T08:53:48.226Z,354.38
2019-03-28T08:54:48.214Z,360.00
2019-03-28T08:55:48.223Z,371.25
2019-03-28T08:56:48.264Z,382.50
2019-03-28T08:57:48.184Z,388.12
2019-03-28T08:58:48.172Z,393.75
2019-03-28T08:59:48.178Z,399.38
2019-03-28T09:00:52.110Z,410.62
2019-03-28T09:01:48.139Z,416.25
2019-03-28T09:02:48.124Z,433.12
2019-03-28T09:03:49.794Z,444.38
2019-03-28T09:04:48.153Z,483.75
2019-03-28T09:05:48.099Z,483.75
2019-03-28T09:06:48.077Z,450.00
2019-03-28T09:07:48.067Z,399.38
2019-03-28T09:08:48.054Z,371.25
2019-03-28T09:09:48.041Z,376.88
2019-03-28T09:10:48.051Z,455.62
2019-03-28T09:11:48.018Z,540.00
2019-03-28T09:12:48.005Z,585.00
2019-03-28T09:13:47.993Z,601.88
2019-03-28T09:14:47.984Z,624.38
2019-03-28T09:15:47.991Z,652.50
2019-03-28T09:16:47.957Z,675.00
2019-03-28T09:17:47.949Z,686.25
2019-03-28T09:18:47.936Z,686.25
2019-03-28T09:19:47.923Z,669.38
2019-03-28T09:20:47.934Z,658.12
2019-03-28T09:21:47.904Z,646.88
2019-03-28T09:22:47.889Z,641.25
2019-03-28T09:23:47.881Z,646.88
2019-03-28T09:24:47.869Z,652.50
2019-03-28T09:25:47.860Z,658.12
2019-03-28T09:26:47.865Z,663.75
2019-03-28T09:27:47.833Z,669.38
2019-03-28T09:28:47.821Z,675.00
2019-03-28T09:29:47.810Z,691.88
2019-03-28T09:30:49.373Z,720.00
2019-03-28T09:31:47.888Z,742.50
2019-03-28T09:32:47.779Z,753.75
2019-03-28T09:33:47.777Z,759.38
2019-03-28T09:34:47.753Z,748.12
2019-03-28T09:35:47.774Z,742.50
2019-03-28T09:36:47.732Z,731.25
2019-03-28T09:37:47.741Z,736.88
2019-03-28T09:38:47.711Z,753.75
2019-03-28T09:39:47.698Z,781.88
2019-03-28T09:40:47.685Z,810.00
2019-03-28T09:41:47.673Z,832.50
2019-03-28T09:42:47.685Z,821.25
2019-03-28T09:43:55.083Z,798.75
2019-03-28T09:44:48.639Z,776.25
2019-03-28T09:45:47.627Z,759.38
2019-03-28T09:46:47.623Z,770.62
2019-03-28T09:47:47.624Z,787.50
2019-03-28T09:48:47.596Z,843.75
2019-03-28T09:49:47.581Z,916.88
2019-03-28T09:50:47.569Z,990.00
2019-03-28T09:51:47.563Z,1057.50
2019-03-28T09:52:47.566Z,1119.38
2019-03-28T09:53:47.536Z,1181.25
2019-03-28T09:54:47.523Z,1276.88
2019-03-28T09:55:47.516Z,1389.38
2019-03-28T09:56:47.499Z,1479.38
2019-03-28T09:57:47.510Z,1535.62
2019-03-28T09:58:47.477Z,1451.25
2019-03-28T09:59:47.464Z,1293.75
2019-03-28T10:01:01.565Z,1164.38
2019-03-28T10:01:48.443Z,1080.00
2019-03-28T10:02:47.449Z,1018.12
2019-03-28T10:03:47.425Z,978.75
2019-03-28T10:04:47.409Z,967.50
2019-03-28T10:05:47.396Z,967.50
2019-03-28T10:06:47.385Z,967.50
2019-03-28T10:07:47.393Z,950.62
2019-03-28T10:08:47.364Z,933.75
2019-03-28T10:09:47.593Z,939.38
2019-03-28T10:10:48.719Z,956.25
2019-03-28T10:11:47.329Z,995.62
2019-03-28T10:12:47.337Z,1057.50
2019-03-28T10:13:47.307Z,1147.50
2019-03-28T10:14:47.295Z,1203.75
2019-03-28T10:15:47.283Z,1237.50
2019-03-28T10:16:47.269Z,1226.25
2019-03-28T10:17:47.282Z,1203.75
2019-03-28T10:18:47.248Z,1203.75
2019-03-28T10:19:47.238Z,1243.12
2019-03-28T10:20:47.229Z,1305.00
2019-03-28T10:21:47.215Z,1366.88
2019-03-28T10:22:47.232Z,1451.25
2019-03-28T10:23:47.194Z,1507.50
2019-03-28T10:24:47.179Z,1513.12
2019-03-28T10:25:47.169Z,1552.50
2019-03-28T10:26:47.156Z,1591.88
2019-03-28T10:27:47.165Z,1614.38
2019-03-28T10:28:47.135Z,1569.38
2019-03-28T10:29:47.122Z,1496.25
2019-03-28T10:30:47.114Z,1406.25
2019-03-28T10:31:47.100Z,1338.75
2019-03-28T10:32:47.107Z,1288.12
2019-03-28T10:33:47.075Z,1260.00
2019-03-28T10:34:47.063Z,1231.88
2019-03-28T10:35:47.052Z,1209.38
2019-03-28T10:36:47.042Z,1192.50
2019-03-28T10:37:47.053Z,1181.25
2019-03-28T10:38:47.022Z,1186.88
2019-03-28T10:39:47.004Z,1226.25
2019-03-28T10:40:46.995Z,1293.75
2019-03-28T10:41:46.986Z,1372.50
2019-03-28T10:42:46.991Z,1456.88
2019-03-28T10:43:46.958Z,1496.25
2019-03-28T10:44:46.947Z,1513.12
2019-03-28T10:45:46.936Z,1507.50
2019-03-28T10:46:46.923Z,1501.88
2019-03-28T10:47:46.936Z,1507.50
2019-03-28T10:48:46.906Z,1530.00
2019-03-28T10:49:46.900Z,1535.62
2019-03-28T10:50:46.880Z,1518.75
2019-03-28T10:51:46.871Z,1490.62
2019-03-28T10:52:46.875Z,1462.50
2019-03-28T10:53:46.847Z,1434.38
2019-03-28T10:54:46.833Z,1423.12
2019-03-28T10:55:46.823Z,1434.38
2019-03-28T10:56:52.163Z,1440.00
2019-03-28T10:57:47.819Z,1451.25
2019-03-28T10:58:46.789Z,1445.62
2019-03-28T10:59:46.780Z,1440.00
2019-03-28T11:00:46.767Z,1468.12
2019-03-28T11:01:50.549Z,1490.62
2019-03-28T11:02:46.810Z,1507.50
2019-03-28T11:03:46.731Z,1456.88
2019-03-28T11:04:46.721Z,1445.62
2019-03-28T11:05:46.710Z,1468.12
2019-03-28T11:06:46.707Z,1507.50
2019-03-28T11:07:46.687Z,1546.88
2019-03-28T11:08:46.692Z,1586.25
2019-03-28T11:09:46.668Z,1569.38
2019-03-28T11:10:46.653Z,1552.50
2019-03-28T11:11:46.642Z,1530.00
2019-03-28T11:12:46.632Z,1546.88
2019-03-28T11:13:46.638Z,1546.88
2019-03-28T11:14:46.607Z,1558.12
2019-03-28T11:15:46.596Z,1524.38
2019-03-28T11:16:48.217Z,1490.62
2019-03-28T11:17:47.590Z,1451.25
2019-03-28T11:18:46.582Z,1411.88
2019-03-28T11:19:46.551Z,1355.62
2019-03-28T11:20:46.540Z,1288.12
2019-03-28T11:21:46.526Z,1226.25
2019-03-28T11:22:46.518Z,1186.88
2019-03-28T11:23:46.520Z,1158.75
2019-03-28T11:24:46.651Z,1119.38
2019-03-28T11:25:46.481Z,1085.62
2019-03-28T11:26:46.475Z,1074.38
2019-03-28T11:27:46.461Z,1091.25
2019-03-28T11:28:46.466Z,1096.88
2019-03-28T11:29:46.436Z,1080.00
2019-03-28T11:30:46.424Z,1057.50
2019-03-28T11:31:50.561Z,1012.50
2019-03-28T11:32:47.407Z,956.25
2019-03-28T11:33:46.411Z,900.00
2019-03-28T11:34:46.381Z,871.88
2019-03-28T11:35:46.368Z,843.75
2019-03-28T11:36:46.358Z,810.00
2019-03-28T11:37:46.350Z,781.88
2019-03-28T11:38:46.355Z,770.62
2019-03-28T11:39:46.725Z,753.75
2019-03-28T11:40:46.309Z,742.50
2019-03-28T11:41:46.302Z,736.88
2019-03-28T11:42:46.328Z,736.88
2019-03-28T11:43:46.274Z,742.50
2019-03-28T11:44:46.266Z,736.88
2019-03-28T11:45:46.254Z,725.62
2019-03-28T11:46:46.240Z,714.38
2019-03-28T11:47:46.231Z,708.75
2019-03-28T11:48:46.241Z,703.12
2019-03-28T11:49:46.208Z,691.88
2019-03-28T11:50:46.195Z,675.00
2019-03-28T11:51:46.185Z,663.75
2019-03-28T11:52:46.172Z,635.62
2019-03-28T11:53:46.179Z,618.75
2019-03-28T11:54:46.149Z,585.00
2019-03-28T11:55:48.757Z,556.88
2019-03-28T11:56:46.125Z,528.75
2019-03-28T11:57:46.135Z,506.25
2019-03-28T11:58:46.101Z,500.62
2019-03-28T11:59:46.092Z,495.00
2019-03-28T12:00:46.087Z,500.62
2019-03-28T12:01:59.094Z,500.62
2019-03-28T12:02:47.076Z,506.25
2019-03-28T12:03:46.045Z,500.62
2019-03-28T12:04:46.037Z,483.75
2019-03-28T12:05:46.023Z,466.88
2019-03-28T12:06:48.815Z,455.62
2019-03-28T12:07:46.019Z,450.00
2019-03-28T12:08:45.988Z,450.00
2019-03-28T12:09:45.978Z,455.62
2019-03-28T12:10:45.967Z,466.88
2019-03-28T12:11:45.954Z,472.50
2019-03-28T12:12:45.969Z,483.75
2019-03-28T12:13:45.934Z,500.62
2019-03-28T12:14:45.921Z,517.50
2019-03-28T12:15:45.912Z,528.75
2019-03-28T12:16:45.897Z,540.00
2019-03-28T12:17:45.926Z,545.62
2019-03-28T12:18:45.871Z,545.62
2019-03-28T12:19:45.860Z,545.62
2019-03-28T12:20:45.851Z,556.88
2019-03-28T12:21:45.837Z,573.75
2019-03-28T12:22:45.837Z,590.62
2019-03-28T12:23:45.834Z,601.88
2019-03-28T12:24:45.804Z,607.50
2019-03-28T12:25:47.333Z,607.50
2019-03-28T12:26:45.780Z,596.25
2019-03-28T12:27:45.769Z,590.62
2019-03-28T12:28:45.776Z,579.38
2019-03-28T12:29:45.743Z,568.12
2019-03-28T12:30:45.734Z,562.50
2019-03-28T12:31:45.728Z,556.88
2019-03-28T12:32:45.711Z,556.88
2019-03-28T12:33:45.718Z,551.25
2019-03-28T12:34:45.700Z,540.00
2019-03-28T12:35:45.678Z,523.12
2019-03-28T12:36:45.663Z,511.88
2019-03-28T12:37:45.651Z,500.62
2019-03-28T12:38:45.659Z,495.00
2019-03-28T12:39:46.585Z,489.38
2019-03-28T12:40:45.617Z,483.75
2019-03-28T12:41:45.608Z,478.12
2019-03-28T12:42:45.596Z,472.50
2019-03-28T12:43:45.602Z,466.88
2019-03-28T12:44:56.512Z,455.62
2019-03-28T12:45:46.560Z,450.00
2019-03-28T12:46:45.550Z,455.62
2019-03-28T12:47:45.542Z,444.38
2019-03-28T12:48:45.546Z,438.75